createdAt,value
2022-11-14T00:00:49.885Z,100007.13
2022-11-14T00:03:36.345Z,100009.72
2022-11-14T00:06:22.511Z,100010.28
2022-11-14T00:09:08.751Z,100011.72
2022-11-14T00:11:55.284Z,100011.28
2022-11-14T00:14:43.306Z,100019.75
2022-11-14T00:17:29.722Z,100013.56
2022-11-14T00:20:16.383Z,100005.94
2022-11-14T00:23:02.464Z,100003.47
2022-11-14T00:25:49.163Z,100002.63
2022-11-14T00:28:35.795Z,99995.19
2022-11-14T00:31:23.557Z,100003.13
2022-11-14T00:34:10.152Z,100003.19
2022-11-14T00:36:56.567Z,99992.91
2022-11-14T00:39:42.651Z,99986.03
2022-11-14T00:42:28.850Z,99990.34
2022-11-14T00:45:15.133Z,100006.59
2022-11-14T00:48:02.641Z,100003.94
2022-11-14T00:50:48.828Z,100003.13
2022-11-14T00:53:35.130Z,100009.91
2022-11-14T00:56:21.137Z,100013.19
2022-11-14T00:59:07.646Z,100007.84
2022-11-14T01:01:57.717Z,100003.69
2022-11-14T01:04:45.635Z,100002.00
2022-11-14T01:07:31.735Z,100001.25
2022-11-14T01:10:18.687Z,100000.56
2022-11-14T01:13:05.145Z,99995.50
2022-11-14T01:15:52.132Z,99995.75
2022-11-14T01:18:39.122Z,99988.19
2022-11-14T01:21:27.074Z,99978.81
2022-11-14T01:24:13.131Z,99991.81
2022-11-14T01:26:59.376Z,99973.09
2022-11-14T01:29:45.489Z,99968.03
2022-11-14T01:32:31.435Z,99971.59
2022-11-14T01:35:17.700Z,99956.25
2022-11-14T01:38:06.366Z,99951.16
2022-11-14T01:40:52.396Z,99948.72
2022-11-14T01:43:39.817Z,99949.41
2022-11-14T01:46:30.073Z,99944.78
2022-11-14T01:49:20.264Z,99940.28
2022-11-14T01:52:10.506Z,99940.97
2022-11-14T01:55:01.120Z,99929.81
2022-11-14T01:57:49.253Z,99931.56
2022-11-14T02:00:35.541Z,99921.31
2022-11-14T02:03:22.307Z,99917.72
2022-11-14T02:06:10.481Z,99911.69
2022-11-14T02:08:58.887Z,99905.50
2022-11-14T02:11:47.444Z,99905.34
2022-11-14T02:14:35.509Z,99898.13
2022-11-14T02:17:29.541Z,99892.59
2022-11-14T02:20:23.262Z,99885.72
2022-11-14T02:23:10.817Z,99887.47
2022-11-14T02:25:57.053Z,99884.13
2022-11-14T02:28:43.180Z,99881.44
2022-11-14T02:31:29.496Z,99878.31
2022-11-14T02:34:19.787Z,99874.19
2022-11-14T02:37:07.764Z,99875.94
2022-11-14T02:39:54.154Z,99881.66
2022-11-14T02:42:40.450Z,99889.09
2022-11-14T02:45:26.840Z,99886.97
2022-11-14T02:48:13.491Z,99889.66
2022-11-14T02:50:59.915Z,99878.38
2022-11-14T02:53:47.390Z,99879.97
2022-11-14T02:56:33.430Z,99893.81
2022-11-14T02:59:19.808Z,99890.59
2022-11-14T03:02:05.797Z,99887.22
2022-11-14T03:04:51.926Z,99896.16
2022-11-14T03:07:38.123Z,99892.53
2022-11-14T03:10:25.920Z,99895.03
2022-11-14T03:13:12.524Z,99882.94
2022-11-14T03:15:58.966Z,99886.31
2022-11-14T03:18:45.110Z,99881.34
2022-11-14T03:21:31.477Z,99871.75
2022-11-14T03:24:17.617Z,99876.09
2022-11-14T03:27:05.320Z,99874.22
2022-11-14T03:29:51.570Z,99876.25
2022-11-14T03:32:37.637Z,99873.88
2022-11-14T03:35:23.737Z,99874.22
2022-11-14T03:38:09.736Z,99881.34
2022-11-14T03:40:55.772Z,99882.53
2022-11-14T03:43:43.263Z,99875.81
2022-11-14T03:46:29.611Z,99869.09
2022-11-14T03:49:15.529Z,99877.63
2022-11-14T03:52:01.826Z,99875.13
2022-11-14T03:54:47.945Z,99878.19
2022-11-14T03:57:33.937Z,99876.59
2022-11-14T04:00:21.749Z,99861.28
2022-11-14T04:03:07.824Z,99854.06
2022-11-14T04:05:53.986Z,99847.34
2022-11-14T04:08:41.435Z,99845.72
2022-11-14T04:11:27.915Z,99836.97
2022-11-14T04:14:14.072Z,99836.06
2022-11-14T04:17:01.597Z,99821.66
2022-11-14T04:19:47.868Z,99810.47
2022-11-14T04:22:33.969Z,99812.94
2022-11-14T04:25:20.140Z,99811.44
2022-11-14T04:28:06.343Z,99813.22
2022-11-14T04:30:52.784Z,99816.81
2022-11-14T04:33:40.522Z,99813.47
2022-11-14T04:36:26.622Z,99806.34
2022-11-14T04:39:13.039Z,99800.25
2022-11-14T04:41:59.423Z,99810.53
2022-11-14T04:44:45.515Z,99803.00
2022-11-14T04:47:32.124Z,99810.81
2022-11-14T04:50:20.031Z,99811.78
2022-11-14T04:53:06.743Z,99816.75
2022-11-14T04:55:52.863Z,99807.34
2022-11-14T04:58:38.965Z,99806.47
2022-11-14T05:01:25.165Z,99810.47
2022-11-14T05:04:11.757Z,99801.13
2022-11-14T05:06:59.267Z,99809.69
2022-11-14T05:09:45.793Z,99807.03
2022-11-14T05:12:32.350Z,99809.44
2022-11-14T05:15:18.716Z,99810.13
2022-11-14T05:18:05.234Z,99810.94
2022-11-14T05:20:51.498Z,99808.19
2022-11-14T05:23:38.929Z,99806.25
2022-11-14T05:26:25.190Z,99791.00
2022-11-14T05:29:11.225Z,99781.66
2022-11-14T05:31:57.845Z,99766.47
2022-11-14T05:34:43.854Z,99757.88
2022-11-14T05:37:30.034Z,99758.88
2022-11-14T05:40:19.160Z,99766.88
2022-11-14T05:43:05.386Z,99766.25
2022-11-14T05:45:51.553Z,99769.00
2022-11-14T05:48:37.769Z,99781.81
2022-11-14T05:51:23.785Z,99779.31
2022-11-14T05:54:10.354Z,99772.59
2022-11-14T05:56:57.890Z,99775.25
2022-11-14T05:59:43.943Z,99765.28
2022-11-14T06:02:30.163Z,99772.09
2022-11-14T06:05:17.079Z,99762.72
2022-11-14T06:08:04.126Z,99761.94
2022-11-14T06:10:50.284Z,99754.00
2022-11-14T06:13:38.056Z,99746.81
2022-11-14T06:16:24.643Z,99747.41
2022-11-14T06:19:10.816Z,99753.91
2022-11-14T06:21:57.080Z,99760.59
2022-11-14T06:24:43.060Z,99742.69
2022-11-14T06:27:29.084Z,99746.44
2022-11-14T06:30:17.017Z,99739.66
2022-11-14T06:33:03.300Z,99739.59
2022-11-14T06:35:49.409Z,99747.59
2022-11-14T06:38:37.341Z,99739.47
2022-11-14T06:41:24.010Z,99748.41
2022-11-14T06:44:10.885Z,99736.00
2022-11-14T06:46:58.413Z,99735.88
2022-11-14T06:49:44.523Z,99743.84
2022-11-14T06:52:32.172Z,99737.66
2022-11-14T06:55:23.944Z,99752.31
2022-11-14T06:58:11.284Z,99760.22
2022-11-14T07:00:57.873Z,99760.59
2022-11-14T07:03:46.317Z,99751.19
2022-11-14T07:06:32.550Z,99752.16
2022-11-14T07:09:18.825Z,99744.19
2022-11-14T07:12:05.234Z,99756.38
2022-11-14T07:14:51.662Z,99747.50
2022-11-14T07:17:37.840Z,99755.78
2022-11-14T07:20:25.613Z,99756.56
2022-11-14T07:23:12.110Z,99764.78
2022-11-14T07:26:02.143Z,99769.31
2022-11-14T07:28:52.851Z,99766.50
2022-11-14T07:31:41.674Z,99769.28
2022-11-14T07:34:28.040Z,99766.94
2022-11-14T07:37:15.722Z,99766.94
2022-11-14T07:40:01.829Z,99762.09
2022-11-14T07:42:47.964Z,99760.06
2022-11-14T07:45:34.191Z,99757.50
2022-11-14T07:48:21.844Z,99757.19
2022-11-14T07:51:10.966Z,99748.28
2022-11-14T07:53:58.779Z,99763.94
2022-11-14T07:56:44.971Z,99756.00
2022-11-14T07:59:31.128Z,99757.75
2022-11-14T08:02:17.248Z,99757.19
2022-11-14T08:05:03.495Z,99761.25
2022-11-14T08:07:51.726Z,99762.88
2022-11-14T08:10:39.542Z,99761.25
2022-11-14T08:13:32.232Z,99764.84
2022-11-14T08:16:19.452Z,99760.72
2022-11-14T08:19:06.191Z,99766.53
2022-11-14T08:21:52.148Z,99768.38
2022-11-14T08:24:39.692Z,99770.97
2022-11-14T08:27:27.234Z,99767.50
2022-11-14T08:30:14.704Z,99770.97
2022-11-14T08:33:03.265Z,99784.81
2022-11-14T08:35:49.716Z,99781.34
2022-11-14T08:38:35.688Z,99773.56
2022-11-14T08:41:21.892Z,99793.28
2022-11-14T08:44:09.441Z,99785.69
2022-11-14T08:46:55.629Z,99786.53
2022-11-14T08:49:41.792Z,99794.53
2022-11-14T08:52:28.091Z,99787.13
2022-11-14T08:55:14.286Z,99779.88
2022-11-14T08:58:00.538Z,99786.00
2022-11-14T09:00:48.133Z,99792.84
2022-11-14T09:03:34.734Z,99781.00
2022-11-14T09:06:21.075Z,99786.66
2022-11-14T09:09:07.375Z,99792.34
2022-11-14T09:11:53.644Z,99792.59
2022-11-14T09:14:39.888Z,99780.94
2022-11-14T09:17:27.863Z,99781.38
2022-11-14T09:20:14.034Z,99785.22
2022-11-14T09:23:00.429Z,99784.72
2022-11-14T09:25:46.884Z,99786.66
2022-11-14T09:28:33.297Z,99786.81
2022-11-14T09:31:19.966Z,99785.38
2022-11-14T09:34:07.722Z,99775.34
2022-11-14T09:36:54.883Z,99781.44
2022-11-14T09:39:41.463Z,99783.16
2022-11-14T09:42:43.841Z,99781.34
2022-11-14T09:45:31.022Z,99771.97
2022-11-14T09:48:20.700Z,99783.09
2022-11-14T09:51:11.621Z,99778.72
2022-11-14T09:54:07.446Z,99777.84
2022-11-14T09:56:55.005Z,99772.84
2022-11-14T09:59:41.163Z,99767.41
2022-11-14T10:02:44.689Z,99774.84
2022-11-14T10:05:43.171Z,99775.50
2022-11-14T10:08:49.557Z,99767.81
2022-11-14T10:11:40.487Z,99772.13
2022-11-14T10:15:06.758Z,99761.03
2022-11-14T10:18:16.234Z,99760.00
2022-11-14T10:21:17.018Z,99754.13
2022-11-14T10:24:23.381Z,99757.56
2022-11-14T10:27:20.128Z,99752.84
2022-11-14T10:30:11.672Z,99752.16
2022-11-14T10:33:14.602Z,99754.19
2022-11-14T10:36:09.722Z,99748.44
2022-11-14T10:39:06.246Z,99739.09
2022-11-14T10:42:02.012Z,99738.38
2022-11-14T10:44:58.244Z,99739.16
2022-11-14T10:47:50.128Z,99732.25
2022-11-14T10:50:44.991Z,99728.19
2022-11-14T10:53:44.769Z,99721.47
2022-11-14T10:56:31.165Z,99721.13
2022-11-14T10:59:19.308Z,99726.25
2022-11-14T11:02:05.362Z,99716.09
2022-11-14T11:04:51.453Z,99719.56
2022-11-14T11:08:28.238Z,99716.25
2022-11-14T11:11:31.438Z,99711.41
2022-11-14T11:14:20.217Z,99716.72
2022-11-14T11:17:22.458Z,99711.59
2022-11-14T11:20:27.449Z,99704.44
2022-11-14T11:23:27.567Z,99701.94
2022-11-14T11:26:20.338Z,99697.75
2022-11-14T11:29:15.435Z,99693.81
2022-11-14T11:32:02.958Z,99696.56
2022-11-14T11:34:49.305Z,99684.31
2022-11-14T11:37:40.938Z,99688.03
2022-11-14T11:40:29.157Z,99677.88
2022-11-14T11:43:38.268Z,99685.09
2022-11-14T11:46:31.353Z,99677.66
2022-11-14T11:49:24.639Z,99674.59
2022-11-14T11:52:17.068Z,99677.47
2022-11-14T11:55:15.283Z,99671.72
2022-11-14T11:58:06.328Z,99675.34
2022-11-14T12:00:55.453Z,99671.97
2022-11-14T12:03:44.141Z,99668.50
2022-11-14T12:06:42.133Z,99659.09
2022-11-14T12:10:08.298Z,99658.38
2022-11-14T12:12:59.765Z,99660.22
2022-11-14T12:15:56.692Z,99665.63
2022-11-14T12:19:14.520Z,99663.41
2022-11-14T12:22:18.342Z,99669.63
2022-11-14T12:25:32.828Z,99656.13
2022-11-14T12:28:26.542Z,99661.66
2022-11-14T12:31:16.942Z,99655.03
2022-11-14T12:34:08.228Z,99655.25
2022-11-14T12:36:54.397Z,99654.56
2022-11-14T12:39:42.291Z,99653.78
2022-11-14T12:42:29.133Z,99653.75
2022-11-14T12:45:48.716Z,99650.06
2022-11-14T12:48:37.345Z,99644.00
2022-11-14T12:51:52.253Z,99644.91
2022-11-14T12:54:49.150Z,99643.94
2022-11-14T12:57:50.114Z,99651.75
2022-11-14T13:00:39.327Z,99647.38
2022-11-14T13:03:38.469Z,99645.72
2022-11-14T13:06:29.267Z,99644.91
2022-11-14T13:09:33.711Z,99653.38
2022-11-14T13:12:46.554Z,99656.44
2022-11-14T13:15:52.553Z,99656.03
2022-11-14T13:19:09.917Z,99655.50
2022-11-14T13:22:32.951Z,99665.63
2022-11-14T13:25:22.873Z,99658.53
2022-11-14T13:28:46.330Z,99667.91
2022-11-14T13:31:51.602Z,99664.91
2022-11-14T13:34:43.034Z,99656.28
2022-11-14T13:37:47.561Z,99648.63
2022-11-14T13:40:37.717Z,99666.50
2022-11-14T13:43:35.277Z,99657.81
2022-11-14T13:46:34.195Z,99659.22
2022-11-14T13:49:39.581Z,99653.09
2022-11-14T13:52:29.413Z,99651.31
2022-11-14T13:55:22.474Z,99641.88
2022-11-14T13:58:23.136Z,99647.03
2022-11-14T14:01:22.888Z,99646.16
2022-11-14T14:04:22.140Z,99640.28
2022-11-14T14:07:16.534Z,99637.69
2022-11-14T14:10:14.166Z,99639.63
2022-11-14T14:13:16.854Z,99647.50
2022-11-14T14:16:10.286Z,99645.84
2022-11-14T14:19:07.939Z,99649.25
2022-11-14T14:22:02.747Z,99642.53
2022-11-14T14:24:57.364Z,99640.03
2022-11-14T14:27:56.958Z,99643.25
2022-11-14T14:31:01.909Z,99649.13
2022-11-14T14:33:50.452Z,99652.44
2022-11-14T14:36:36.854Z,99646.28
2022-11-14T14:39:26.557Z,99651.28
2022-11-14T14:42:13.112Z,99647.69
2022-11-14T14:45:00.158Z,99652.72
2022-11-14T14:47:49.455Z,99649.25
2022-11-14T14:50:41.372Z,99654.38
2022-11-14T14:53:29.813Z,99658.50
2022-11-14T14:56:21.541Z,99655.75
2022-11-14T14:59:19.030Z,99651.38
2022-11-14T15:02:05.146Z,99664.22
2022-11-14T15:04:51.236Z,99661.72
2022-11-14T15:07:40.346Z,99657.53
2022-11-14T15:10:30.488Z,99652.53
2022-11-14T15:13:19.341Z,99644.88
2022-11-14T15:16:07.754Z,99651.72
2022-11-14T15:18:56.366Z,99651.66
2022-11-14T15:21:43.928Z,99651.50
2022-11-14T15:24:30.841Z,99647.91
2022-11-14T15:27:19.268Z,99659.66
2022-11-14T15:30:20.693Z,99649.97
2022-11-14T15:33:26.970Z,99652.16
2022-11-14T15:36:16.996Z,99649.34
2022-11-14T15:39:05.803Z,99648.28
2022-11-14T15:42:15.852Z,99651.34
2022-11-14T15:45:02.127Z,99643.53
2022-11-14T15:47:50.528Z,99651.78
2022-11-14T15:50:36.662Z,99655.47
2022-11-14T15:53:24.654Z,99652.44
2022-11-14T15:56:13.231Z,99660.69
2022-11-14T15:58:59.730Z,99659.31
2022-11-14T16:01:48.241Z,99662.41
2022-11-14T16:04:37.364Z,99663.81
2022-11-14T16:07:23.730Z,99665.22
2022-11-14T16:10:15.547Z,99665.88
2022-11-14T16:13:01.988Z,99665.56
2022-11-14T16:15:48.122Z,99665.13
2022-11-14T16:18:34.418Z,99669.03
2022-11-14T16:21:22.092Z,99666.25
2022-11-14T16:24:15.126Z,99670.22
2022-11-14T16:27:01.567Z,99673.41
2022-11-14T16:29:47.754Z,99674.91
2022-11-14T16:32:33.945Z,99684.91
2022-11-14T16:35:21.298Z,99682.16
2022-11-14T16:38:13.279Z,99682.75
2022-11-14T16:41:00.267Z,99693.78
2022-11-14T16:43:46.599Z,99685.00
2022-11-14T16:46:32.769Z,99696.94
2022-11-14T16:49:19.674Z,99700.31
2022-11-14T16:52:08.614Z,99702.81
2022-11-14T16:54:56.278Z,99710.59
2022-11-14T16:57:42.397Z,99711.34
2022-11-14T17:00:28.602Z,99707.81
2022-11-14T17:03:15.405Z,99717.94
2022-11-14T17:06:01.516Z,99716.00
2022-11-14T17:08:47.828Z,99722.78
2022-11-14T17:11:36.063Z,99720.81
2022-11-14T17:14:22.010Z,99730.13
2022-11-14T17:17:08.205Z,99730.88
2022-11-14T17:19:54.419Z,99728.09
2022-11-14T17:22:40.481Z,99733.97
2022-11-14T17:25:26.728Z,99740.75
2022-11-14T17:28:14.324Z,99738.91
2022-11-14T17:31:00.923Z,99744.03
2022-11-14T17:33:52.226Z,99735.50
2022-11-14T17:36:38.437Z,99733.91
2022-11-14T17:39:24.941Z,99739.94
2022-11-14T17:42:11.336Z,99732.34
2022-11-14T17:45:00.912Z,99716.97
2022-11-14T17:47:46.942Z,99727.13
2022-11-14T17:50:37.439Z,99729.63
2022-11-14T17:53:24.331Z,99727.13
2022-11-14T17:56:14.101Z,99738.22
2022-11-14T17:59:00.639Z,99728.97
2022-11-14T18:01:48.660Z,99725.63
2022-11-14T18:04:34.905Z,99727.41
2022-11-14T18:07:21.553Z,99726.63
2022-11-14T18:10:08.642Z,99729.25
2022-11-14T18:12:55.117Z,99728.41
2022-11-14T18:15:41.310Z,99718.91
2022-11-14T18:18:30.547Z,99720.56
2022-11-14T18:21:18.703Z,99724.75
2022-11-14T18:24:05.670Z,99721.31
2022-11-14T18:26:52.045Z,99721.31
2022-11-14T18:29:38.316Z,99722.94
2022-11-14T18:32:24.512Z,99729.72
2022-11-14T18:35:12.673Z,99727.13
2022-11-14T18:37:59.213Z,99723.66
2022-11-14T18:40:45.323Z,99721.91
2022-11-14T18:43:33.268Z,99725.38
2022-11-14T18:46:22.531Z,99727.13
2022-11-14T18:49:08.867Z,99723.72
2022-11-14T18:51:56.804Z,99723.72
2022-11-14T18:54:42.945Z,99717.72
2022-11-14T18:57:29.097Z,99716.91
2022-11-14T19:00:16.196Z,99715.13
2022-11-14T19:03:05.966Z,99711.72
2022-11-14T19:05:52.367Z,99717.59
2022-11-14T19:08:40.091Z,99715.03
2022-11-14T19:11:43.695Z,99714.13
2022-11-14T19:14:30.087Z,99707.19
2022-11-14T19:17:20.581Z,99713.22
2022-11-14T19:20:13.966Z,99712.38
2022-11-14T19:23:00.196Z,99709.72
2022-11-14T19:25:47.671Z,99718.25
2022-11-14T19:28:34.138Z,99720.75
2022-11-14T19:31:21.168Z,99720.75
2022-11-14T19:34:07.759Z,99719.03
2022-11-14T19:37:01.990Z,99719.88
2022-11-14T19:39:52.207Z,99714.75
2022-11-14T19:42:39.767Z,99718.03
2022-11-14T19:45:25.744Z,99716.28
2022-11-14T19:48:11.754Z,99715.47
2022-11-14T19:51:02.816Z,99714.53
2022-11-14T19:53:49.995Z,99718.03
2022-11-14T19:56:36.064Z,99723.22
2022-11-14T19:59:24.818Z,99725.88
2022-11-14T20:02:13.848Z,99721.59
2022-11-14T20:05:00.222Z,99725.03
2022-11-14T20:07:46.310Z,99725.91
2022-11-14T20:10:47.220Z,99731.94
2022-11-14T20:13:35.247Z,99731.13
2022-11-14T20:16:24.660Z,99730.50
2022-11-14T20:19:10.695Z,99726.13
2022-11-14T20:21:56.811Z,99731.34
2022-11-14T20:24:43.002Z,99728.78
2022-11-14T20:27:29.265Z,99732.16
2022-11-14T20:30:16.078Z,99737.28
2022-11-14T20:33:03.546Z,99737.28
2022-11-14T20:35:49.898Z,99732.94
2022-11-14T20:38:36.255Z,99733.91
2022-11-14T20:41:22.904Z,99733.91
2022-11-14T20:44:09.551Z,99739.03
2022-11-14T20:46:56.869Z,99737.38
2022-11-14T20:49:45.000Z,99746.03
2022-11-14T20:52:31.491Z,99742.59
2022-11-14T20:55:18.389Z,99740.94
2022-11-14T20:58:04.668Z,99743.63
2022-11-14T21:00:51.170Z,99735.81
2022-11-14T21:03:37.558Z,99735.75
2022-11-14T21:06:24.890Z,99735.75
2022-11-14T21:09:10.986Z,99728.84
2022-11-14T21:11:57.139Z,99725.50
2022-11-14T21:14:43.379Z,99730.63
2022-11-14T21:17:31.317Z,99729.72
2022-11-14T21:20:17.902Z,99734.75
2022-11-14T21:23:05.358Z,99734.75
2022-11-14T21:25:51.490Z,99742.44
2022-11-14T21:28:42.136Z,99745.75
2022-11-14T21:31:31.788Z,99735.50
2022-11-14T21:34:18.490Z,99730.31
2022-11-14T21:37:04.807Z,99728.56
2022-11-14T21:39:52.524Z,99733.75
2022-11-14T21:42:39.731Z,99731.19
2022-11-14T21:45:28.400Z,99731.06
2022-11-14T21:48:14.231Z,99735.31
2022-11-14T21:51:05.307Z,99725.00
2022-11-14T21:53:54.935Z,99723.16
2022-11-14T21:56:42.594Z,99720.59
2022-11-14T21:59:28.967Z,99722.16
2022-11-14T22:02:32.826Z,99730.56
2022-11-14T22:05:19.323Z,99727.75
2022-11-14T22:08:05.813Z,99719.06
2022-11-14T22:10:52.045Z,99723.25
2022-11-14T22:13:39.551Z,99723.25
2022-11-14T22:16:25.906Z,99728.06
2022-11-14T22:19:11.831Z,99722.81
2022-11-14T22:21:58.135Z,99719.31
2022-11-14T22:24:44.071Z,99720.94
2022-11-14T22:27:30.135Z,99726.81
2022-11-14T22:30:17.662Z,99725.84
2022-11-14T22:33:03.533Z,99721.38
2022-11-14T22:35:49.630Z,99719.66
2022-11-14T22:38:37.031Z,99728.13
2022-11-14T22:41:30.530Z,99729.06
2022-11-14T22:44:18.411Z,99733.47
2022-11-14T22:47:05.870Z,99736.19
2022-11-14T22:49:52.234Z,99738.03
2022-11-14T22:52:38.379Z,99742.38
2022-11-14T22:55:24.550Z,99748.59
2022-11-14T22:58:10.922Z,99756.31
2022-11-14T23:00:57.041Z,99759.91
2022-11-14T23:03:44.623Z,99752.28
2022-11-14T23:06:33.125Z,99759.19
2022-11-14T23:09:18.955Z,99753.25
2022-11-14T23:12:05.694Z,99756.75
2022-11-14T23:14:51.723Z,99757.69
2022-11-14T23:17:38.010Z,99748.31
2022-11-14T23:20:25.466Z,99756.09
2022-11-14T23:23:11.693Z,99748.44
2022-11-14T23:25:57.945Z,99739.94
2022-11-14T23:28:45.558Z,99755.31
2022-11-14T23:31:31.747Z,99745.00
2022-11-14T23:34:17.916Z,99744.22
2022-11-14T23:37:05.435Z,99745.16
2022-11-14T23:39:51.680Z,99750.28
2022-11-14T23:42:37.856Z,99742.63
2022-11-14T23:45:24.155Z,99745.25
2022-11-14T23:48:10.477Z,99744.47
2022-11-14T23:50:59.850Z,99743.63
2022-11-14T23:53:47.690Z,99747.03
2022-11-14T23:56:33.791Z,99739.38
2022-11-14T23:59:19.835Z,99730.78
